METAR Data
IDs: Format: Raw Decoded Include TAF

Data at: 2355 UTC 24 Apr 2019

METAR for:KSDA (Shenandoah Muni, IA, US)
Text:KSDA 242335Z AUTO 00000KT 2SM HZ CLR 23/M00 A2977 RMK AO2 VIS 1 1/4V5
Temperature: 23.0°C ( 73°F)
Dewpoint: 0.0°C ( 32°F) [RH = 22%]
Pressure (altimeter):29.77 inches Hg (1008.2 mb)
Winds:calm
Visibility: 2.00 sm ( 3.22 km)
Ceiling:at least 12,000 feet AGL
Clouds:sky clear below 12,000 feet AGL
Weather:HZ (haze)
QC Flag:automated observation with no human augmentation